createdAt,value
2023-01-23T00:43:45.525Z,3.27
2023-01-23T00:49:45.538Z,3.23
2023-01-23T00:50:45.575Z,3.07
2023-01-23T00:51:45.613Z,3.30
2023-01-23T00:52:45.653Z,3.87
2023-01-23T00:53:45.690Z,2.88
2023-01-23T00:54:45.717Z,3.15
2023-01-23T00:55:45.774Z,3.10
2023-01-23T00:56:45.799Z,3.37
2023-01-23T00:57:45.839Z,4.00
2023-01-23T00:58:45.890Z,3.31
2023-01-23T00:59:45.998Z,2.90
2023-01-23T01:00:45.996Z,3.48
2023-01-23T01:01:46.021Z,3.55
2023-01-23T01:02:46.064Z,2.72
2023-01-23T01:03:46.067Z,3.42
2023-01-23T01:04:46.244Z,2.91
2023-01-23T01:05:46.145Z,2.99
2023-01-23T01:06:46.199Z,3.39
2023-01-23T01:07:46.238Z,3.23
2023-01-23T01:08:46.273Z,3.55
2023-01-23T01:09:46.300Z,3.33
2023-01-23T01:10:46.329Z,3.11
2023-01-23T01:11:46.365Z,3.39
2023-01-23T01:12:46.402Z,3.23
2023-01-23T01:13:46.521Z,3.44
2023-01-23T01:14:46.600Z,3.00
2023-01-23T01:15:46.703Z,3.67
2023-01-23T01:16:46.555Z,3.32
2023-01-23T01:17:46.587Z,3.37
2023-01-23T01:18:46.635Z,3.46
2023-01-23T01:19:46.665Z,3.98
2023-01-23T01:20:46.708Z,3.54
2023-01-23T01:21:46.743Z,3.17
2023-01-23T01:22:46.781Z,2.95
2023-01-23T01:23:46.840Z,3.33
2023-01-23T01:24:46.855Z,2.99
2023-01-23T01:25:46.905Z,3.43
2023-01-23T01:26:46.935Z,2.90
2023-01-23T01:27:46.969Z,3.02
2023-01-23T01:28:47.000Z,3.51
2023-01-23T01:29:47.042Z,3.34
2023-01-23T01:30:47.085Z,3.39
2023-01-23T01:31:47.676Z,3.09
2023-01-23T01:32:47.123Z,3.70
2023-01-23T01:33:47.160Z,3.44
2023-01-23T01:34:47.189Z,3.49
2023-01-23T01:35:47.225Z,3.17
2023-01-23T01:36:47.263Z,3.37
2023-01-23T01:37:47.297Z,3.48
2023-01-23T01:38:47.313Z,2.92
2023-01-23T01:39:47.355Z,3.54
2023-01-23T01:40:47.393Z,3.32
2023-01-23T01:41:47.438Z,2.84
2023-01-23T01:42:47.468Z,3.23
2023-01-23T01:43:47.576Z,3.33
2023-01-23T01:44:47.544Z,3.63
2023-01-23T01:45:48.544Z,3.07
2023-01-23T01:46:47.657Z,3.58
2023-01-23T01:47:47.725Z,2.92
2023-01-23T01:48:48.046Z,3.59
2023-01-23T01:49:47.712Z,3.75
2023-01-23T01:50:47.738Z,3.16
2023-01-23T01:51:47.773Z,2.94
2023-01-23T01:52:47.798Z,3.28
2023-01-23T01:53:47.903Z,3.54
2023-01-23T01:54:47.880Z,3.41
2023-01-23T01:55:47.902Z,3.03
2023-01-23T01:56:47.942Z,3.31
2023-01-23T01:57:47.974Z,2.88
2023-01-23T01:58:48.001Z,3.02
2023-01-23T01:59:48.040Z,3.45
2023-01-23T02:00:48.092Z,2.91
2023-01-23T02:01:48.221Z,3.11
2023-01-23T02:02:48.168Z,3.15
2023-01-23T02:03:48.282Z,2.99
2023-01-23T02:04:48.235Z,3.01
2023-01-23T02:05:48.288Z,3.12
2023-01-23T02:06:48.331Z,3.05
2023-01-23T02:07:48.381Z,3.47
2023-01-23T02:08:48.419Z,3.23
2023-01-23T02:09:48.467Z,3.59
2023-01-23T02:10:48.490Z,3.06
2023-01-23T02:11:48.515Z,2.80
2023-01-23T02:12:48.557Z,3.17
2023-01-23T02:13:48.573Z,3.23
2023-01-23T02:14:48.603Z,3.15
2023-01-23T02:15:48.639Z,3.41
2023-01-23T02:16:48.667Z,3.05
2023-01-23T02:17:48.705Z,3.28
2023-01-23T02:18:48.753Z,3.22
2023-01-23T02:19:48.847Z,3.02
2023-01-23T02:20:48.794Z,3.42
2023-01-23T02:21:48.827Z,3.23
2023-01-23T02:22:48.850Z,3.20
2023-01-23T02:23:48.891Z,3.31
2023-01-23T02:24:48.915Z,3.67
2023-01-23T02:25:48.963Z,3.48
2023-01-23T02:26:49.001Z,3.61
2023-01-23T02:27:49.048Z,3.17
2023-01-23T02:28:49.044Z,3.25
2023-01-23T02:29:49.084Z,3.27
2023-01-23T02:30:49.174Z,2.84
2023-01-23T02:31:49.192Z,2.84
2023-01-23T02:32:49.195Z,3.13
2023-01-23T02:33:49.226Z,3.55
2023-01-23T02:34:49.263Z,3.51
2023-01-23T02:35:49.386Z,3.40
2023-01-23T02:36:49.358Z,2.96
2023-01-23T02:37:49.387Z,3.03
2023-01-23T02:38:50.051Z,3.42
2023-01-23T02:39:49.529Z,2.94
2023-01-23T02:40:49.500Z,3.32
2023-01-23T02:41:49.551Z,3.46
2023-01-23T02:42:49.583Z,2.81
2023-01-23T02:43:49.633Z,3.05
2023-01-23T02:44:49.666Z,3.28
2023-01-23T02:45:49.750Z,2.85
2023-01-23T02:46:49.763Z,3.27
2023-01-23T02:47:49.784Z,2.97
2023-01-23T02:48:49.825Z,3.30
2023-01-23T02:49:49.875Z,3.36
2023-01-23T02:50:49.927Z,3.25
2023-01-23T02:51:50.139Z,3.27
2023-01-23T02:52:49.974Z,3.19
2023-01-23T02:53:49.989Z,3.28
2023-01-23T02:54:50.078Z,3.23
2023-01-23T02:55:50.060Z,3.32
2023-01-23T02:56:50.103Z,3.34
2023-01-23T02:57:50.118Z,3.24
2023-01-23T02:58:50.156Z,3.03
2023-01-23T02:59:50.198Z,3.05
2023-01-23T03:00:50.315Z,3.85
2023-01-23T03:01:50.300Z,3.21
2023-01-23T03:02:50.310Z,3.20
2023-01-23T03:03:50.330Z,3.16
2023-01-23T03:04:50.369Z,3.09
2023-01-23T03:05:50.402Z,3.25
2023-01-23T03:06:50.440Z,3.31
2023-01-23T03:07:50.565Z,3.36
2023-01-23T03:08:50.512Z,3.77
2023-01-23T03:09:50.547Z,3.31
2023-01-23T03:10:50.586Z,3.27
2023-01-23T03:11:50.629Z,3.59
2023-01-23T03:12:50.673Z,3.26
2023-01-23T03:13:50.683Z,3.19
2023-01-23T03:14:50.733Z,3.56
2023-01-23T03:15:50.763Z,3.09
2023-01-23T03:16:50.800Z,3.27
2023-01-23T03:17:50.834Z,3.59
2023-01-23T03:18:54.683Z,3.32
2023-01-23T03:19:50.862Z,3.25
2023-01-23T03:20:51.562Z,3.41
2023-01-23T03:21:50.843Z,3.14
2023-01-23T03:22:50.850Z,3.49
2023-01-23T03:23:50.922Z,3.02
2023-01-23T03:24:50.823Z,3.11
2023-01-23T03:25:50.819Z,3.75
2023-01-23T03:26:50.811Z,3.41
2023-01-23T03:27:50.863Z,3.12
2023-01-23T03:28:50.800Z,2.89
2023-01-23T03:29:50.780Z,2.98
2023-01-23T03:30:50.805Z,3.05
2023-01-23T03:31:50.813Z,3.32
2023-01-23T03:32:50.828Z,3.40
2023-01-23T03:33:50.764Z,2.98
2023-01-23T03:34:50.738Z,3.17
2023-01-23T03:35:50.760Z,3.19
2023-01-23T03:36:51.637Z,3.40
2023-01-23T03:37:50.731Z,3.65
2023-01-23T03:38:50.734Z,3.69
2023-01-23T03:39:50.795Z,3.26
2023-01-23T03:40:50.719Z,3.42
2023-01-23T03:41:50.710Z,3.53
2023-01-23T03:42:50.699Z,2.91
2023-01-23T03:43:50.692Z,3.14
2023-01-23T03:44:50.676Z,3.34
2023-01-23T03:45:50.736Z,3.42
2023-01-23T03:46:50.685Z,3.36
2023-01-23T03:47:50.653Z,3.31
2023-01-23T03:48:50.677Z,3.08
2023-01-23T03:49:50.641Z,3.25
2023-01-23T03:50:50.704Z,2.71
2023-01-23T04:12:50.494Z,3.04
2023-01-23T04:13:50.519Z,2.70
2023-01-23T04:14:50.562Z,3.29
2023-01-23T04:15:50.602Z,3.23
2023-01-23T04:16:50.664Z,3.25
2023-01-23T04:18:50.719Z,3.20
2023-01-23T04:20:50.811Z,2.76
2023-01-23T04:21:50.854Z,3.50
2023-01-23T04:22:50.911Z,3.59
2023-01-23T05:42:55.617Z,3.59
2023-01-23T06:02:55.692Z,2.95
2023-01-23T06:03:55.620Z,3.02
2023-01-23T06:04:55.889Z,3.45
2023-01-23T06:05:55.586Z,3.24
2023-01-23T06:06:55.623Z,3.14
2023-01-23T06:07:55.691Z,2.84
2023-01-23T06:08:55.701Z,3.45
2023-01-23T06:09:55.787Z,3.06
2023-01-23T06:10:55.802Z,3.47
2023-01-23T06:11:55.836Z,3.32
2023-01-23T06:12:55.861Z,3.41
2023-01-23T06:13:55.970Z,3.48
2023-01-23T06:14:55.936Z,3.26
2023-01-23T06:15:56.577Z,2.97
2023-01-23T06:16:56.029Z,3.16
2023-01-23T06:17:56.110Z,2.80
2023-01-23T06:18:56.082Z,3.10
2023-01-23T06:19:56.176Z,2.99
2023-01-23T06:20:56.637Z,2.94
2023-01-23T06:21:56.107Z,3.10
2023-01-23T06:22:56.115Z,3.52
2023-01-23T06:23:56.114Z,2.86
2023-01-23T06:24:56.119Z,3.17
2023-01-23T06:25:56.133Z,3.02
2023-01-23T06:26:56.147Z,2.85
2023-01-23T06:27:56.174Z,2.53
2023-01-23T06:28:56.249Z,2.60
2023-01-23T06:29:56.303Z,3.13
2023-01-23T06:30:56.395Z,3.16
2023-01-23T06:31:56.481Z,3.33
2023-01-23T06:32:56.465Z,3.22
2023-01-23T06:33:56.525Z,3.41
2023-01-23T06:53:57.187Z,2.91
2023-01-23T06:54:57.218Z,3.56
2023-01-23T06:55:57.288Z,3.07
2023-01-23T06:56:57.329Z,3.22
2023-01-23T06:57:57.447Z,2.94
2023-01-23T06:58:57.501Z,3.02
2023-01-23T06:59:57.483Z,3.08
2023-01-23T07:00:57.526Z,3.03
2023-01-23T07:01:57.663Z,3.18
2023-01-23T07:02:57.677Z,3.08
2023-01-23T07:03:57.655Z,3.09
2023-01-23T07:04:57.708Z,3.06
2023-01-23T07:05:57.742Z,3.33
2023-01-23T10:04:05.853Z,7.21
2023-01-23T10:25:05.837Z,7.52
2023-01-23T10:45:05.731Z,5.95
2023-01-23T10:46:05.788Z,6.95
2023-01-23T11:04:06.247Z,5.85
2023-01-23T11:09:05.542Z,5.17
2023-01-23T11:10:05.755Z,7.42
2023-01-23T11:11:05.641Z,7.09
2023-01-23T11:12:05.879Z,6.47
2023-01-23T11:13:05.764Z,6.34
2023-01-23T11:14:05.825Z,6.69
2023-01-23T11:15:05.893Z,6.08
2023-01-23T11:17:05.983Z,7.70
2023-01-23T11:18:06.031Z,7.18
2023-01-23T11:19:06.089Z,8.40
2023-01-23T11:20:06.145Z,9.26
2023-01-23T11:21:06.180Z,13.38
2023-01-23T11:22:06.200Z,12.70
2023-01-23T11:24:06.357Z,12.60
2023-01-23T11:25:06.317Z,11.87
2023-01-23T11:26:06.315Z,13.41
2023-01-23T11:27:06.362Z,12.84
2023-01-23T11:28:06.388Z,12.16
2023-01-23T11:29:07.664Z,11.77
2023-01-23T11:30:06.442Z,12.43
2023-01-23T11:31:14.027Z,10.80
2023-01-23T11:33:06.476Z,9.61
2023-01-23T11:34:06.465Z,9.99
2023-01-23T11:35:08.497Z,9.84
2023-01-23T11:36:06.443Z,9.45
2023-01-23T11:37:06.441Z,8.79
2023-01-23T11:38:06.491Z,8.18
2023-01-23T11:39:06.435Z,7.95
2023-01-23T11:40:06.511Z,8.44
2023-01-23T11:41:06.415Z,7.04
2023-01-23T11:42:06.396Z,7.73
2023-01-23T11:43:06.404Z,8.05
2023-01-23T11:44:07.888Z,7.03
2023-01-23T11:45:06.392Z,7.00
2023-01-23T11:46:06.439Z,6.37
2023-01-23T11:47:06.409Z,5.78
2023-01-23T11:48:06.442Z,6.28
2023-01-23T11:49:06.513Z,7.21
2023-01-23T11:50:06.558Z,6.39
2023-01-23T11:51:06.626Z,6.11
2023-01-23T11:52:06.634Z,6.34
2023-01-23T11:53:07.255Z,6.12
2023-01-23T11:54:06.760Z,5.69
2023-01-23T11:55:06.726Z,6.70
2023-01-23T11:56:06.832Z,6.60
2023-01-23T11:57:06.757Z,5.61
2023-01-23T11:58:06.770Z,6.12
2023-01-23T11:59:06.785Z,5.90
2023-01-23T12:00:06.813Z,7.04
2023-01-23T12:01:06.800Z,7.66
2023-01-23T12:02:06.790Z,8.87
2023-01-23T12:03:06.843Z,8.82
2023-01-23T12:04:06.842Z,8.60
2023-01-23T12:05:06.881Z,9.27
2023-01-23T12:07:07.793Z,8.79
2023-01-23T12:08:06.784Z,9.05
2023-01-23T12:09:06.778Z,7.86
2023-01-23T12:10:07.775Z,7.68
2023-01-23T12:11:06.759Z,8.42
2023-01-23T12:12:06.830Z,7.78
2023-01-23T12:13:06.747Z,7.70
2023-01-23T12:14:06.742Z,7.49
2023-01-23T12:15:06.745Z,7.47
2023-01-23T12:16:07.375Z,7.69
2023-01-23T12:17:06.721Z,7.88
2023-01-23T12:18:06.736Z,7.78
2023-01-23T12:19:06.718Z,7.06
2023-01-23T12:20:06.702Z,8.27
2023-01-23T12:21:06.693Z,7.14
2023-01-23T12:22:06.689Z,7.71
2023-01-23T12:23:06.753Z,7.20
2023-01-23T12:24:06.753Z,8.27
2023-01-23T12:25:06.680Z,6.81
2023-01-23T12:26:06.665Z,7.37
2023-01-23T12:27:06.673Z,7.42
2023-01-23T12:28:06.834Z,7.32
2023-01-23T12:29:06.770Z,7.12
2023-01-23T12:30:06.817Z,6.67
2023-01-23T12:31:06.935Z,5.71
2023-01-23T12:32:06.969Z,7.08
2023-01-23T12:33:06.950Z,7.08
2023-01-23T12:34:07.005Z,5.84
2023-01-23T12:35:07.058Z,6.85
2023-01-23T12:36:07.105Z,7.14
2023-01-23T12:37:14.184Z,6.73
2023-01-23T12:38:08.152Z,6.39
2023-01-23T12:39:07.133Z,6.41
2023-01-23T12:40:08.670Z,6.12
2023-01-23T12:41:07.242Z,6.60
2023-01-23T12:42:07.123Z,5.49
2023-01-23T12:43:07.110Z,6.17
2023-01-23T12:44:07.192Z,6.57
2023-01-23T12:45:07.096Z,5.86
2023-01-23T12:46:07.085Z,6.41
2023-01-23T12:47:07.155Z,5.92
2023-01-23T12:48:07.083Z,5.89
2023-01-23T12:49:07.073Z,6.50
2023-01-23T12:50:07.086Z,5.95
2023-01-23T12:51:07.108Z,5.84
2023-01-23T12:52:07.064Z,5.78
2023-01-23T12:53:07.053Z,6.58
2023-01-23T12:54:07.050Z,6.59
2023-01-23T12:55:07.044Z,5.83
2023-01-23T12:56:07.016Z,6.02
2023-01-23T12:57:07.040Z,5.75
2023-01-23T12:58:09.621Z,5.60
2023-01-23T12:59:07.042Z,5.66
2023-01-23T13:00:07.111Z,5.37
2023-01-23T13:01:07.122Z,6.06
2023-01-23T13:02:07.043Z,6.16
2023-01-23T13:03:06.999Z,5.98
2023-01-23T13:04:07.001Z,5.63
2023-01-23T13:05:06.995Z,5.14
2023-01-23T13:06:06.984Z,5.91
2023-01-23T13:07:07.039Z,5.37
2023-01-23T13:08:07.002Z,5.76
2023-01-23T13:09:16.987Z,5.22
2023-01-23T13:10:07.964Z,6.08
2023-01-23T13:11:07.013Z,7.07
2023-01-23T13:12:06.949Z,5.38
2023-01-23T13:13:06.953Z,5.07
2023-01-23T13:14:06.932Z,5.54
2023-01-23T13:15:14.157Z,5.18
2023-01-23T13:16:08.021Z,5.68
2023-01-23T13:17:06.916Z,5.36
2023-01-23T13:18:06.909Z,5.86
2023-01-23T13:19:06.903Z,5.67
2023-01-23T13:20:06.986Z,5.89
2023-01-23T13:21:06.881Z,5.10
2023-01-23T13:22:09.363Z,5.29
2023-01-23T13:23:06.975Z,5.75
2023-01-23T13:24:06.968Z,5.45
2023-01-23T13:25:06.990Z,5.63
2023-01-23T13:26:07.010Z,5.26
2023-01-23T13:27:07.541Z,4.77
2023-01-23T13:28:07.050Z,5.36
2023-01-23T13:29:07.053Z,5.33
2023-01-23T13:30:07.093Z,5.01
2023-01-23T13:31:07.128Z,5.59
2023-01-23T13:32:07.450Z,4.91
2023-01-23T13:33:07.115Z,5.26
2023-01-23T13:34:15.579Z,4.88
2023-01-23T13:35:08.716Z,5.68
2023-01-23T13:36:07.123Z,4.85
2023-01-23T13:37:07.121Z,4.93
2023-01-23T13:38:07.105Z,5.25
2023-01-23T13:39:07.107Z,5.32
2023-01-23T13:40:07.222Z,5.22
2023-01-23T13:41:07.099Z,4.65
2023-01-23T13:42:07.099Z,5.37
2023-01-23T13:43:07.073Z,4.89
2023-01-23T13:44:07.065Z,5.45
2023-01-23T13:45:07.091Z,5.13
2023-01-23T13:46:07.131Z,5.39
2023-01-23T13:47:07.046Z,4.73
2023-01-23T13:48:07.120Z,5.53
2023-01-23T13:49:07.103Z,5.31
2023-01-23T13:50:07.022Z,5.04
2023-01-23T13:51:07.034Z,5.21
2023-01-23T13:52:07.036Z,5.40
2023-01-23T13:53:07.009Z,4.44
2023-01-23T13:54:07.007Z,5.58
2023-01-23T13:55:07.011Z,5.18
2023-01-23T13:56:06.984Z,4.97
2023-01-23T13:57:06.995Z,5.74
2023-01-23T13:58:07.059Z,4.81
2023-01-23T13:59:06.978Z,5.01
2023-01-23T14:00:06.964Z,4.93
2023-01-23T14:01:06.964Z,5.34
2023-01-23T14:02:07.032Z,4.93
2023-01-23T14:03:07.036Z,4.68
2023-01-23T14:04:07.138Z,4.80
2023-01-23T14:05:07.068Z,4.95
2023-01-23T14:06:07.091Z,4.57
2023-01-23T14:07:07.128Z,4.81
2023-01-23T14:08:07.130Z,4.84
2023-01-23T14:09:07.169Z,5.22
2023-01-23T14:10:07.162Z,5.32
2023-01-23T14:11:07.177Z,5.10
2023-01-23T14:12:07.193Z,4.31
2023-01-23T14:13:07.224Z,4.96
2023-01-23T14:14:07.239Z,5.11
2023-01-23T14:15:07.229Z,5.08
2023-01-23T14:16:07.251Z,5.71
2023-01-23T14:17:07.320Z,4.85
2023-01-23T14:18:07.832Z,5.04
2023-01-23T14:19:07.337Z,5.72
2023-01-23T14:20:07.422Z,5.02
2023-01-23T14:21:07.357Z,4.55
2023-01-23T14:22:07.391Z,4.83
2023-01-23T14:23:07.458Z,5.07
2023-01-23T14:24:07.494Z,5.68
2023-01-23T14:25:07.549Z,4.32
2023-01-23T14:26:07.555Z,4.64
2023-01-23T14:27:08.411Z,4.70
2023-01-23T14:28:07.821Z,4.45
2023-01-23T14:29:07.608Z,4.83
2023-01-23T14:30:07.628Z,4.81
2023-01-23T14:31:07.657Z,4.76
2023-01-23T14:32:07.749Z,4.75
2023-01-23T14:33:07.680Z,4.60
2023-01-23T14:34:10.653Z,4.72
2023-01-23T14:35:07.677Z,4.98
2023-01-23T14:36:07.838Z,5.65
2023-01-23T14:37:07.755Z,4.76
2023-01-23T14:38:07.728Z,5.22
2023-01-23T14:39:07.655Z,5.03
2023-01-23T14:40:12.155Z,5.24
2023-01-23T14:41:08.649Z,4.39
2023-01-23T14:42:11.609Z,4.85
2023-01-23T14:43:08.649Z,4.51
2023-01-23T14:44:07.704Z,4.25
2023-01-23T14:45:07.616Z,4.89
2023-01-23T14:46:07.610Z,5.08
2023-01-23T14:47:07.602Z,4.20
2023-01-23T14:48:07.991Z,4.25
2023-01-23T14:49:07.597Z,5.04
2023-01-23T14:50:07.593Z,4.18
2023-01-23T14:51:07.575Z,5.13
2023-01-23T14:52:07.647Z,4.58
2023-01-23T14:53:07.668Z,4.79
2023-01-23T14:54:10.429Z,4.47
2023-01-23T14:55:08.190Z,4.22
2023-01-23T14:56:07.541Z,4.79
2023-01-23T14:57:07.534Z,4.98
2023-01-23T14:58:07.550Z,4.46
2023-01-23T14:59:07.513Z,4.72
2023-01-23T15:00:07.506Z,5.08
2023-01-23T15:01:07.565Z,4.36
2023-01-23T15:02:20.190Z,4.64
2023-01-23T15:03:08.596Z,4.56
2023-01-23T15:04:07.483Z,4.19
2023-01-23T15:05:07.487Z,5.18
2023-01-23T15:06:07.462Z,4.14
2023-01-23T15:07:07.451Z,5.08
2023-01-23T15:08:07.549Z,4.60
2023-01-23T15:09:07.453Z,5.54
2023-01-23T15:10:07.433Z,4.42
2023-01-23T15:11:07.435Z,4.66
2023-01-23T15:12:07.435Z,4.66
2023-01-23T15:13:07.435Z,4.40
2023-01-23T15:14:07.406Z,4.33
2023-01-23T15:15:07.401Z,4.50
2023-01-23T15:16:07.398Z,4.61
2023-01-23T15:17:07.411Z,5.25
2023-01-23T15:18:07.380Z,3.99
2023-01-23T15:19:07.391Z,4.47
2023-01-23T15:20:07.374Z,4.74
2023-01-23T15:21:07.367Z,4.28
2023-01-23T15:22:07.360Z,4.84
2023-01-23T15:23:07.381Z,4.24
2023-01-23T15:24:07.431Z,4.08
2023-01-23T15:25:07.345Z,4.55
2023-01-23T15:26:07.337Z,4.96
2023-01-23T15:27:07.335Z,4.62
2023-01-23T15:28:07.327Z,4.46
2023-01-23T15:29:07.316Z,4.36
2023-01-23T15:30:07.319Z,4.22
2023-01-23T15:31:07.402Z,4.23
2023-01-23T15:32:07.337Z,4.70
2023-01-23T15:33:07.332Z,4.36
2023-01-23T15:34:07.297Z,4.43
2023-01-23T15:35:07.317Z,4.09
2023-01-23T15:36:07.292Z,4.64
2023-01-23T15:37:07.263Z,4.12
2023-01-23T15:38:09.378Z,4.10
2023-01-23T15:39:07.347Z,5.24
2023-01-23T15:40:07.477Z,4.62
2023-01-23T15:41:07.428Z,4.46
2023-01-23T15:42:07.471Z,3.83
2023-01-23T15:43:07.580Z,4.02
2023-01-23T15:44:07.553Z,4.31
2023-01-23T15:45:07.605Z,4.33
2023-01-23T15:46:07.660Z,4.78
2023-01-23T15:47:07.724Z,4.36
2023-01-23T15:48:07.743Z,4.54
2023-01-23T15:49:16.470Z,4.45
2023-01-23T15:50:08.788Z,4.11
2023-01-23T15:51:07.765Z,3.83
2023-01-23T15:52:07.767Z,4.77
2023-01-23T15:53:07.750Z,4.29
2023-01-23T15:54:07.744Z,5.39
2023-01-23T15:55:07.754Z,4.19
2023-01-23T15:56:07.819Z,4.69
2023-01-23T15:57:09.006Z,4.87
2023-01-23T15:58:07.727Z,4.45
2023-01-23T15:59:07.711Z,4.27
2023-01-23T16:00:07.709Z,4.78
2023-01-23T16:01:07.776Z,5.39
2023-01-23T16:02:12.872Z,4.37
2023-01-23T16:03:08.889Z,4.33
2023-01-23T16:04:07.767Z,4.54
2023-01-23T16:05:07.765Z,4.05
2023-01-23T16:06:07.741Z,4.14
2023-01-23T16:07:07.736Z,4.33
2023-01-23T16:08:08.415Z,4.28
2023-01-23T16:09:07.726Z,4.84
2023-01-23T16:10:07.719Z,4.49
2023-01-23T16:11:07.715Z,4.81
2023-01-23T16:12:09.486Z,4.41
2023-01-23T16:13:07.718Z,4.30
2023-01-23T16:14:07.686Z,4.41
2023-01-23T16:15:07.691Z,4.42
2023-01-23T16:16:07.788Z,5.09
2023-01-23T16:17:16.494Z,4.13
2023-01-23T16:18:08.662Z,4.24
2023-01-23T16:19:07.667Z,4.48
2023-01-23T16:20:07.646Z,4.08
2023-01-23T16:21:07.636Z,4.59
2023-01-23T16:22:07.623Z,4.54
2023-01-23T16:23:14.652Z,5.06
2023-01-23T16:24:08.639Z,4.46
2023-01-23T16:25:07.622Z,4.62
2023-01-23T16:26:07.610Z,4.72
2023-01-23T16:27:07.605Z,4.40
2023-01-23T16:28:07.662Z,3.86
2023-01-23T16:29:13.746Z,4.13
2023-01-23T16:31:07.647Z,4.23
2023-01-23T16:32:07.697Z,3.76
2023-01-23T16:33:07.571Z,4.06
2023-01-23T16:34:07.592Z,4.06
2023-01-23T16:35:07.552Z,4.10
2023-01-23T16:36:07.536Z,4.66
2023-01-23T16:37:07.549Z,4.12
2023-01-23T16:38:07.526Z,4.31
2023-01-23T16:39:07.548Z,4.45
2023-01-23T16:40:07.613Z,4.55
2023-01-23T16:41:07.660Z,4.71
2023-01-23T16:42:07.715Z,4.38
2023-01-23T16:43:07.753Z,4.69
2023-01-23T16:49:08.048Z,3.92
2023-01-23T17:31:10.603Z,4.68
2023-01-23T17:32:10.709Z,3.71
2023-01-23T17:33:10.633Z,4.27
2023-01-23T17:34:10.687Z,4.46
2023-01-23T17:35:10.756Z,4.45
2023-01-23T17:36:10.818Z,4.28
2023-01-23T17:37:10.888Z,4.52
2023-01-23T17:38:10.942Z,4.93
2023-01-23T17:39:11.016Z,4.84
2023-01-23T17:40:11.059Z,4.08
2023-01-23T17:41:11.122Z,4.54
2023-01-23T17:42:11.181Z,4.34
2023-01-23T17:43:11.237Z,4.60
2023-01-23T17:44:11.322Z,4.35
2023-01-23T17:45:11.361Z,4.48
2023-01-23T17:46:11.477Z,3.94
2023-01-23T17:47:11.495Z,4.04
2023-01-23T17:48:12.193Z,4.60
2023-01-23T17:49:11.614Z,4.47
2023-01-23T17:50:11.642Z,4.69
2023-01-23T17:51:11.786Z,4.00
2023-01-23T17:52:11.784Z,4.44
2023-01-23T17:53:11.848Z,3.91
2023-01-23T17:54:11.887Z,4.38
2023-01-23T17:55:11.955Z,4.37
2023-01-23T17:56:12.008Z,4.37
2023-01-23T17:57:12.071Z,4.46
2023-01-23T17:58:12.126Z,4.49
2023-01-23T17:59:12.170Z,4.24
2023-01-23T18:00:12.218Z,4.04
2023-01-23T18:01:12.313Z,4.95
2023-01-23T18:02:12.337Z,4.01
2023-01-23T18:03:12.358Z,5.02
2023-01-23T18:04:12.485Z,4.07
2023-01-23T18:05:12.462Z,4.18
2023-01-23T18:06:12.536Z,4.65
2023-01-23T18:07:12.575Z,4.38
2023-01-23T18:08:12.631Z,4.37
2023-01-23T18:09:12.676Z,4.18
2023-01-23T18:10:12.725Z,4.83
2023-01-23T18:11:12.782Z,5.26
2023-01-23T19:22:16.432Z,4.88
2023-01-23T19:24:15.591Z,4.64
2023-01-23T19:25:16.434Z,4.43
2023-01-23T19:27:15.931Z,3.78
2023-01-23T19:28:16.439Z,3.94
2023-01-23T19:29:22.905Z,3.72
2023-01-23T19:30:16.521Z,4.20
2023-01-23T19:31:15.613Z,4.44
2023-01-23T19:40:15.542Z,3.80
2023-01-23T19:48:15.551Z,4.29
2023-01-23T19:49:15.582Z,3.72
2023-01-23T19:50:15.625Z,4.44
2023-01-23T19:51:15.640Z,4.38
2023-01-23T19:52:15.673Z,3.97
2023-01-23T19:53:15.694Z,4.66
2023-01-23T19:54:15.704Z,4.14
2023-01-23T19:55:15.737Z,3.84
2023-01-23T19:56:15.842Z,4.64
2023-01-23T19:57:15.751Z,4.19
2023-01-23T19:58:15.752Z,3.73
2023-01-23T19:59:15.753Z,4.09
2023-01-23T20:00:16.441Z,4.16
2023-01-23T20:01:15.973Z,4.66
2023-01-23T20:02:15.811Z,4.04
2023-01-23T20:03:15.784Z,4.52
2023-01-23T20:04:15.810Z,4.04
2023-01-23T20:05:15.773Z,4.91
2023-01-23T20:06:15.793Z,3.93
2023-01-23T20:07:15.795Z,4.41
2023-01-23T20:08:15.801Z,5.10
2023-01-23T20:09:15.851Z,4.15
2023-01-23T20:10:15.805Z,4.09
2023-01-23T20:11:15.800Z,4.06
2023-01-23T20:12:15.900Z,4.65
2023-01-23T20:13:15.805Z,3.93
2023-01-23T20:14:15.809Z,3.80
2023-01-23T20:15:15.811Z,4.66
2023-01-23T20:16:15.801Z,3.61
2023-01-23T20:17:15.806Z,3.89
2023-01-23T20:18:15.825Z,4.18
2023-01-23T20:19:15.844Z,4.50
2023-01-23T20:20:15.847Z,4.65
2023-01-23T20:21:15.881Z,4.44
2023-01-23T20:22:15.888Z,4.01
2023-01-23T20:23:15.900Z,4.65
2023-01-23T20:24:16.040Z,4.31
2023-01-23T20:25:15.935Z,3.95
2023-01-23T20:26:16.446Z,3.82
2023-01-23T20:27:16.466Z,3.74
2023-01-23T20:28:16.063Z,3.91
2023-01-23T20:29:16.036Z,3.83
2023-01-23T20:30:16.038Z,3.98
2023-01-23T20:31:16.572Z,3.89
2023-01-23T20:32:16.077Z,3.89
2023-01-23T20:33:16.136Z,4.56
2023-01-23T20:34:16.166Z,4.34
2023-01-23T20:35:16.200Z,4.12
2023-01-23T20:36:16.301Z,4.63
2023-01-23T20:37:16.279Z,4.23
2023-01-23T20:38:16.289Z,3.61
2023-01-23T20:39:16.297Z,4.86
2023-01-23T20:40:16.299Z,4.22
2023-01-23T20:41:16.306Z,4.30
2023-01-23T20:42:16.313Z,3.92
2023-01-23T20:43:16.303Z,4.23
2023-01-23T20:44:16.406Z,4.38
2023-01-23T20:45:16.337Z,4.44
2023-01-23T20:46:16.476Z,4.09
2023-01-23T20:47:16.339Z,4.23
2023-01-23T20:48:16.354Z,4.56
2023-01-23T20:49:16.377Z,4.14
2023-01-23T20:50:16.382Z,4.62
2023-01-23T20:51:16.407Z,4.26
2023-01-23T20:52:16.951Z,4.64
2023-01-23T20:53:16.443Z,4.06
2023-01-23T20:54:16.430Z,4.20
2023-01-23T20:55:16.440Z,5.00
2023-01-23T20:56:16.481Z,4.01
2023-01-23T20:57:16.423Z,3.89
2023-01-23T20:58:16.422Z,4.07
2023-01-23T20:59:16.418Z,3.85
2023-01-23T21:00:16.510Z,3.72
2023-01-23T21:01:16.491Z,4.13
2023-01-23T21:02:16.431Z,4.40
2023-01-23T21:03:16.448Z,4.18
2023-01-23T21:04:16.438Z,3.81
2023-01-23T21:05:16.450Z,3.97
2023-01-23T21:06:16.495Z,4.06
2023-01-23T21:07:16.427Z,4.39
2023-01-23T21:08:16.434Z,4.33
2023-01-23T21:09:16.440Z,4.11
2023-01-23T21:10:16.961Z,3.90
2023-01-23T21:11:16.425Z,3.96
2023-01-23T21:12:16.448Z,4.25
2023-01-23T21:13:16.441Z,5.00
2023-01-23T21:14:16.440Z,4.28
2023-01-23T21:15:16.434Z,4.26
2023-01-23T21:16:16.589Z,4.22
2023-01-23T21:17:16.432Z,4.74
2023-01-23T21:18:16.433Z,4.73
2023-01-23T21:19:16.446Z,3.79
2023-01-23T21:20:16.441Z,4.33
2023-01-23T21:21:16.440Z,4.76
2023-01-23T21:22:16.468Z,4.34
2023-01-23T21:23:16.445Z,3.74
2023-01-23T21:24:16.495Z,3.66
2023-01-23T21:25:16.453Z,4.63
2023-01-23T21:26:16.453Z,3.74
2023-01-23T21:27:16.973Z,3.75
2023-01-23T21:28:16.455Z,4.32
2023-01-23T21:29:16.452Z,3.79
2023-01-23T21:30:16.439Z,3.94
2023-01-23T21:31:16.523Z,4.12
2023-01-23T21:32:16.527Z,4.65
2023-01-23T21:33:16.460Z,3.73
2023-01-23T21:34:16.451Z,3.70
2023-01-23T21:35:16.468Z,4.21
2023-01-23T21:36:16.448Z,4.51
2023-01-23T21:37:16.446Z,3.55
2023-01-23T21:38:16.470Z,3.98
2023-01-23T21:39:16.481Z,3.72
2023-01-23T21:40:16.498Z,4.39
2023-01-23T21:41:17.528Z,4.03
2023-01-23T21:42:16.517Z,3.98
2023-01-23T21:43:16.524Z,3.66
2023-01-23T21:44:16.520Z,4.04
2023-01-23T21:45:16.520Z,3.73
2023-01-23T21:46:16.632Z,3.72
2023-01-23T21:47:16.528Z,3.60
2023-01-23T21:48:16.645Z,3.59
2023-01-23T21:49:16.583Z,4.37
2023-01-23T21:50:16.587Z,3.99
2023-01-23T21:51:16.584Z,3.68
2023-01-23T21:52:16.581Z,3.85
2023-01-23T21:53:16.593Z,4.06
2023-01-23T21:54:16.628Z,4.11
2023-01-23T21:55:16.600Z,3.61
2023-01-23T21:56:16.617Z,3.90
2023-01-23T21:57:16.624Z,3.59
2023-01-23T21:58:16.635Z,3.46
2023-01-23T21:59:16.652Z,4.34
2023-01-23T22:00:16.654Z,4.44
2023-01-23T22:01:16.735Z,3.84
2023-01-23T22:02:16.767Z,4.03
2023-01-23T22:03:16.668Z,4.14
2023-01-23T22:04:16.777Z,3.87
2023-01-23T22:05:16.691Z,4.20
2023-01-23T22:06:16.678Z,3.95
2023-01-23T22:07:16.672Z,4.25
2023-01-23T22:08:16.677Z,3.83
2023-01-23T22:09:16.661Z,3.96
2023-01-23T22:10:16.655Z,3.90
2023-01-23T22:11:16.653Z,4.29
2023-01-23T22:12:16.721Z,4.18
2023-01-23T22:13:16.649Z,4.00
2023-01-23T22:14:16.762Z,3.97
2023-01-23T22:15:16.647Z,3.85
2023-01-23T22:16:16.756Z,3.98
2023-01-23T22:17:16.692Z,3.48
2023-01-23T22:18:16.685Z,3.76
2023-01-23T22:19:16.697Z,4.01
2023-01-23T22:20:16.797Z,3.78
2023-01-23T22:21:16.715Z,3.85
2023-01-23T22:22:16.711Z,3.98
2023-01-23T22:23:16.715Z,4.03
2023-01-23T22:24:16.745Z,4.48
2023-01-23T22:25:16.737Z,4.09
2023-01-23T22:26:16.781Z,3.64
2023-01-23T22:27:16.740Z,4.12
2023-01-23T22:28:16.755Z,3.84
2023-01-23T22:29:16.773Z,3.91
2023-01-23T22:30:16.757Z,4.15
2023-01-23T22:31:16.808Z,3.88
2023-01-23T22:32:16.858Z,4.03
2023-01-23T22:33:16.744Z,3.92
2023-01-23T22:34:16.759Z,3.79
2023-01-23T22:35:16.750Z,3.79
2023-01-23T22:36:16.841Z,3.38
2023-01-23T22:37:16.761Z,3.95
2023-01-23T22:38:16.751Z,3.99
2023-01-23T22:39:16.793Z,3.88
2023-01-23T22:40:16.773Z,3.72
2023-01-23T22:41:16.779Z,4.34
2023-01-23T22:42:16.764Z,4.05